createdAt,value
2023-11-19T00:01:07.420Z,1.77
2023-11-19T00:18:48.052Z,1.45
2023-11-19T00:24:18.126Z,1.35
2023-11-19T00:29:46.325Z,1.45
2023-11-19T00:35:11.751Z,1.73
2023-11-19T00:40:28.359Z,1.60
2023-11-19T00:45:41.390Z,2.22
2023-11-19T01:03:54.825Z,2.00
2023-11-19T01:15:52.050Z,2.58
2023-11-19T01:34:33.429Z,2.95
2023-11-19T01:40:21.903Z,1.40
2023-11-19T01:57:56.393Z,1.80
2023-11-19T02:03:25.287Z,1.50
2023-11-19T02:08:54.491Z,1.38
2023-11-19T02:20:10.262Z,1.80
2023-11-19T02:25:28.503Z,1.38
2023-11-19T02:30:43.776Z,2.00
2023-11-19T02:36:04.821Z,1.85
2023-11-19T02:41:30.756Z,1.85
2023-11-19T03:18:06.527Z,1.80
2023-11-19T03:23:50.110Z,1.45
2023-11-19T03:35:43.998Z,2.22
2023-11-19T04:09:52.918Z,2.30
2023-11-19T04:12:31.084Z,1.60
2023-11-19T04:18:57.256Z,1.08
2023-11-19T04:42:36.921Z,0.50
2023-11-19T04:48:03.228Z,0.60
2023-11-19T05:23:59.282Z,0.47
2023-11-19T05:29:03.625Z,0.70
2023-11-19T05:46:59.314Z,2.00
2023-11-19T05:58:20.236Z,2.70
2023-11-19T06:16:00.237Z,2.58
2023-11-19T06:33:08.328Z,4.55
2023-11-19T06:45:01.614Z,4.20
2023-11-19T07:20:50.478Z,1.90
2023-11-19T07:26:03.279Z,2.05
2023-11-19T07:31:42.877Z,2.92
2023-11-19T07:36:56.672Z,2.53
2023-11-19T07:42:36.077Z,2.40
2023-11-19T07:53:19.295Z,2.47
2023-11-19T07:58:42.752Z,2.70
2023-11-19T08:04:18.232Z,2.45
2023-11-19T08:22:15.413Z,2.10
2023-11-19T08:28:03.327Z,2.15
2023-11-19T08:45:58.508Z,2.80
2023-11-19T08:59:10.283Z,2.90
2023-11-19T11:42:53.411Z,2.30
2023-11-19T12:12:12.556Z,3.30
2023-11-19T12:17:44.780Z,2.60
2023-11-19T12:22:49.029Z,2.30
2023-11-19T12:34:36.610Z,2.88
2023-11-19T13:25:58.441Z,2.45
2023-11-19T13:49:18.041Z,2.47
2023-11-19T14:06:32.414Z,2.40
2023-11-19T14:12:10.001Z,2.90
2023-11-19T14:19:02.009Z,2.35
2023-11-19T14:30:33.770Z,2.22
2023-11-19T14:48:07.833Z,3.00
2023-11-19T14:53:13.424Z,2.75
2023-11-19T14:58:28.648Z,2.55
2023-11-19T15:09:35.172Z,3.65
2023-11-19T15:15:05.333Z,3.23
2023-11-19T15:20:27.990Z,3.13
2023-11-19T15:25:34.151Z,3.63
2023-11-19T15:30:36.018Z,4.18
2023-11-19T15:35:35.969Z,6.38
2023-11-19T15:40:46.506Z,6.07
2023-11-19T15:45:53.259Z,6.00
2023-11-19T15:51:03.287Z,5.13
2023-11-19T15:56:03.335Z,5.05
2023-11-19T16:01:02.221Z,5.78
2023-11-19T16:06:10.212Z,5.30
2023-11-19T16:11:10.971Z,5.53
2023-11-19T16:16:12.079Z,5.15
2023-11-19T16:21:09.796Z,4.90
2023-11-19T16:26:31.283Z,5.68
2023-11-19T16:31:50.972Z,5.90
2023-11-19T16:36:58.585Z,8.68
2023-11-19T16:42:16.313Z,5.55
2023-11-19T16:47:17.353Z,5.50
2023-11-19T16:52:20.498Z,6.97
2023-11-19T16:57:40.969Z,6.07
2023-11-19T17:07:55.099Z,5.50
2023-11-19T17:13:07.825Z,6.03
2023-11-19T17:18:25.506Z,6.65
2023-11-19T17:23:34.251Z,5.47
2023-11-19T17:28:54.696Z,5.95
2023-11-19T17:34:22.428Z,6.57
2023-11-19T17:39:24.871Z,6.18
2023-11-19T17:50:25.493Z,6.38
2023-11-19T17:56:01.264Z,6.47
2023-11-19T18:01:06.718Z,6.10
2023-11-19T18:06:30.869Z,6.80
2023-11-19T18:11:34.439Z,6.95
2023-11-19T18:16:54.800Z,6.28
2023-11-19T18:22:12.324Z,6.00
2023-11-19T18:27:11.037Z,6.55
2023-11-19T18:32:11.226Z,6.35
2023-11-19T18:37:15.580Z,6.70
2023-11-19T18:42:13.462Z,6.57
2023-11-19T18:47:21.709Z,6.65
2023-11-19T18:52:25.088Z,6.25
2023-11-19T18:57:52.967Z,6.43
2023-11-19T19:08:18.235Z,5.93
2023-11-19T19:13:16.110Z,6.00
2023-11-19T19:18:14.372Z,7.28
2023-11-19T19:23:12.407Z,6.78
2023-11-19T19:33:13.162Z,5.85
2023-11-19T19:38:10.952Z,6.22
2023-11-19T19:43:14.039Z,5.63
2023-11-19T19:48:11.703Z,5.90
2023-11-19T19:53:13.961Z,6.05
2023-11-19T19:58:19.395Z,5.70
2023-11-19T20:03:25.438Z,5.80
2023-11-19T20:08:28.870Z,5.60
2023-11-19T20:13:28.886Z,5.55
2023-11-19T20:18:33.205Z,5.57
2023-11-19T20:23:31.735Z,6.03
2023-11-19T20:28:29.628Z,5.97
2023-11-19T20:33:39.347Z,5.63
2023-11-19T20:38:43.386Z,5.60
2023-11-19T20:43:40.948Z,5.88
2023-11-19T20:48:46.141Z,5.75
2023-11-19T20:53:46.871Z,5.40
2023-11-19T20:58:44.833Z,5.82
2023-11-19T21:03:46.153Z,5.68
2023-11-19T21:08:46.408Z,5.10
2023-11-19T21:13:51.368Z,5.65
2023-11-19T21:18:49.534Z,5.35
2023-11-19T21:24:04.426Z,4.93
2023-11-19T21:29:09.232Z,5.45
2023-11-19T21:34:29.294Z,5.68
2023-11-19T21:39:37.166Z,5.30
2023-11-19T21:44:54.183Z,5.45
2023-11-19T21:49:54.015Z,5.00
2023-11-19T21:54:51.872Z,5.55
2023-11-19T21:59:53.183Z,5.25
2023-11-19T22:10:28.400Z,6.78
2023-11-19T22:15:50.703Z,5.43
2023-11-19T22:20:55.449Z,5.10
2023-11-19T22:26:07.475Z,6.25
2023-11-19T22:36:17.184Z,5.57
2023-11-19T22:41:16.508Z,5.53
2023-11-19T22:46:15.311Z,5.80
2023-11-19T22:51:15.941Z,5.32
2023-11-19T22:56:17.983Z,5.03
2023-11-19T23:01:27.894Z,4.82
2023-11-19T23:17:01.517Z,4.97
2023-11-19T23:21:59.435Z,4.90
2023-11-19T23:27:05.389Z,4.85
2023-11-19T23:32:07.384Z,5.07
2023-11-19T23:37:13.565Z,5.35
2023-11-19T23:42:14.567Z,5.63
2023-11-19T23:47:15.310Z,5.80
2023-11-19T23:52:15.127Z,5.22
2023-11-19T23:57:21.724Z,5.53
